sensor_id;sensor_type;location;lat;lon;timestamp;temperature;humidity
53711;DHT22;39605;52.704;6.752;2022-09-14T00:00:50;13.00;99.90
53711;DHT22;39605;52.704;6.752;2022-09-14T00:03:17;13.00;99.90
53711;DHT22;39605;52.704;6.752;2022-09-14T00:05:43;13.00;99.90
53711;DHT22;39605;52.704;6.752;2022-09-14T00:08:09;13.00;99.90
53711;DHT22;39605;52.704;6.752;2022-09-14T00:10:42;13.00;99.90
53711;DHT22;39605;52.704;6.752;2022-09-14T00:13:09;13.00;99.90
53711;DHT22;39605;52.704;6.752;2022-09-14T00:15:36;13.00;99.90
53711;DHT22;39605;52.704;6.752;2022-09-14T00:18:02;12.90;99.90
53711;DHT22;39605;52.704;6.752;2022-09-14T00:20:29;12.90;99.90
53711;DHT22;39605;52.704;6.752;2022-09-14T00:22:54;12.90;99.90
53711;DHT22;39605;52.704;6.752;2022-09-14T00:25:20;12.90;99.90
53711;DHT22;39605;52.704;6.752;2022-09-14T00:27:46;12.90;99.90
53711;DHT22;39605;52.704;6.752;2022-09-14T00:30:12;12.90;99.90
53711;DHT22;39605;52.704;6.752;2022-09-14T00:32:38;12.90;99.90
53711;DHT22;39605;52.704;6.752;2022-09-14T00:35:04;12.90;99.90
53711;DHT22;39605;52.704;6.752;2022-09-14T00:37:29;12.90;99.90
53711;DHT22;39605;52.704;6.752;2022-09-14T00:39:55;12.90;99.90
53711;DHT22;39605;52.704;6.752;2022-09-14T00:42:21;12.90;99.90
53711;DHT22;39605;52.704;6.752;2022-09-14T00:47:13;12.90;99.90
53711;DHT22;39605;52.704;6.752;2022-09-14T00:49:41;13.00;99.90
53711;DHT22;39605;52.704;6.752;2022-09-14T00:52:28;12.90;99.90
53711;DHT22;39605;52.704;6.752;2022-09-14T00:55:04;12.90;99.90
53711;DHT22;39605;52.704;6.752;2022-09-14T00:57:36;13.00;99.90
53711;DHT22;39605;52.704;6.752;2022-09-14T01:00:05;12.90;99.90
53711;DHT22;39605;52.704;6.752;2022-09-14T01:02:33;12.80;99.90
53711;DHT22;39605;52.704;6.752;2022-09-14T01:04:59;12.70;99.90
53711;DHT22;39605;52.704;6.752;2022-09-14T01:10:18;12.70;99.90
53711;DHT22;39605;52.704;6.752;2022-09-14T01:16:01;12.70;99.90
53711;DHT22;39605;52.704;6.752;2022-09-14T01:18:30;12.70;99.90
53711;DHT22;39605;52.704;6.752;2022-09-14T01:26:28;12.60;99.90
53711;DHT22;39605;52.704;6.752;2022-09-14T01:31:43;12.60;99.90
53711;DHT22;39605;52.704;6.752;2022-09-14T01:34:29;12.60;99.90
53711;DHT22;39605;52.704;6.752;2022-09-14T01:37:15;12.60;99.90
53711;DHT22;39605;52.704;6.752;2022-09-14T01:39:45;12.60;99.90
53711;DHT22;39605;52.704;6.752;2022-09-14T01:42:12;12.50;99.90
53711;DHT22;39605;52.704;6.752;2022-09-14T01:44:42;12.50;99.90
53711;DHT22;39605;52.704;6.752;2022-09-14T01:47:15;12.40;99.90
53711;DHT22;39605;52.704;6.752;2022-09-14T01:49:54;12.40;99.90
53711;DHT22;39605;52.704;6.752;2022-09-14T01:52:33;12.30;99.90
53711;DHT22;39605;52.704;6.752;2022-09-14T01:55:08;12.30;99.90
53711;DHT22;39605;52.704;6.752;2022-09-14T01:57:40;12.30;99.90
53711;DHT22;39605;52.704;6.752;2022-09-14T02:00:10;12.20;99.90
53711;DHT22;39605;52.704;6.752;2022-09-14T02:02:44;12.20;99.90
53711;DHT22;39605;52.704;6.752;2022-09-14T02:07:42;12.10;99.90
53711;DHT22;39605;52.704;6.752;2022-09-14T02:10:10;12.00;99.90
53711;DHT22;39605;52.704;6.752;2022-09-14T02:12:38;12.10;99.90
53711;DHT22;39605;52.704;6.752;2022-09-14T02:15:05;12.10;99.90
53711;DHT22;39605;52.704;6.752;2022-09-14T02:17:34;12.20;99.90
53711;DHT22;39605;52.704;6.752;2022-09-14T02:20:03;12.10;99.90
53711;DHT22;39605;52.704;6.752;2022-09-14T02:22:30;12.10;99.90
53711;DHT22;39605;52.704;6.752;2022-09-14T02:24:56;12.10;99.90
53711;DHT22;39605;52.704;6.752;2022-09-14T02:27:22;12.10;99.90
53711;DHT22;39605;52.704;6.752;2022-09-14T02:29:48;12.10;99.90
53711;DHT22;39605;52.704;6.752;2022-09-14T02:35:25;12.00;99.90
53711;DHT22;39605;52.704;6.752;2022-09-14T02:43:27;12.10;99.90
53711;DHT22;39605;52.704;6.752;2022-09-14T02:48:43;12.10;99.90
53711;DHT22;39605;52.704;6.752;2022-09-14T02:51:34;12.10;99.90
53711;DHT22;39605;52.704;6.752;2022-09-14T02:57:06;12.20;99.90
53711;DHT22;39605;52.704;6.752;2022-09-14T02:59:32;12.20;99.90
53711;DHT22;39605;52.704;6.752;2022-09-14T03:01:58;12.20;99.90
53711;DHT22;39605;52.704;6.752;2022-09-14T03:04:25;12.20;99.90
53711;DHT22;39605;52.704;6.752;2022-09-14T03:06:51;12.20;99.90
53711;DHT22;39605;52.704;6.752;2022-09-14T03:09:17;12.20;99.90
53711;DHT22;39605;52.704;6.752;2022-09-14T03:11:42;12.20;99.90
53711;DHT22;39605;52.704;6.752;2022-09-14T03:14:10;12.20;99.90
53711;DHT22;39605;52.704;6.752;2022-09-14T03:16:37;12.20;99.90
53711;DHT22;39605;52.704;6.752;2022-09-14T03:19:05;12.20;99.90
53711;DHT22;39605;52.704;6.752;2022-09-14T03:21:31;12.30;99.90
53711;DHT22;39605;52.704;6.752;2022-09-14T03:23:57;12.20;99.90
53711;DHT22;39605;52.704;6.752;2022-09-14T03:26:24;12.20;99.90
53711;DHT22;39605;52.704;6.752;2022-09-14T03:28:52;12.30;99.90
53711;DHT22;39605;52.704;6.752;2022-09-14T03:31:19;12.30;99.90
53711;DHT22;39605;52.704;6.752;2022-09-14T03:33:44;12.30;99.90
53711;DHT22;39605;52.704;6.752;2022-09-14T03:36:16;12.30;99.90
53711;DHT22;39605;52.704;6.752;2022-09-14T03:38:46;12.30;99.90
53711;DHT22;39605;52.704;6.752;2022-09-14T03:41:13;12.30;99.90
53711;DHT22;39605;52.704;6.752;2022-09-14T03:43:40;12.30;99.90
53711;DHT22;39605;52.704;6.752;2022-09-14T03:46:15;12.30;99.90
53711;DHT22;39605;52.704;6.752;2022-09-14T03:48:41;12.20;99.90
53711;DHT22;39605;52.704;6.752;2022-09-14T03:51:09;12.20;99.90
53711;DHT22;39605;52.704;6.752;2022-09-14T03:53:35;12.20;99.90
53711;DHT22;39605;52.704;6.752;2022-09-14T03:56:15;12.10;99.90
53711;DHT22;39605;52.704;6.752;2022-09-14T03:58:41;12.10;99.90
53711;DHT22;39605;52.704;6.752;2022-09-14T04:01:10;12.20;99.90
53711;DHT22;39605;52.704;6.752;2022-09-14T04:03:36;12.20;99.90
53711;DHT22;39605;52.704;6.752;2022-09-14T04:06:03;12.20;99.90
53711;DHT22;39605;52.704;6.752;2022-09-14T04:08:37;12.20;99.90
53711;DHT22;39605;52.704;6.752;2022-09-14T04:11:25;12.20;99.90
53711;DHT22;39605;52.704;6.752;2022-09-14T04:13:51;12.20;99.90
53711;DHT22;39605;52.704;6.752;2022-09-14T04:16:19;12.20;99.90
53711;DHT22;39605;52.704;6.752;2022-09-14T04:18:46;12.20;99.90
53711;DHT22;39605;52.704;6.752;2022-09-14T04:21:17;12.10;99.90
53711;DHT22;39605;52.704;6.752;2022-09-14T04:23:43;12.20;99.90
53711;DHT22;39605;52.704;6.752;2022-09-14T04:26:19;12.20;99.90
53711;DHT22;39605;52.704;6.752;2022-09-14T04:28:45;12.20;99.90
53711;DHT22;39605;52.704;6.752;2022-09-14T04:31:12;12.20;99.90
53711;DHT22;39605;52.704;6.752;2022-09-14T04:33:39;12.20;99.90
53711;DHT22;39605;52.704;6.752;2022-09-14T04:36:09;12.10;99.90
53711;DHT22;39605;52.704;6.752;2022-09-14T04:38:36;12.20;99.90
53711;DHT22;39605;52.704;6.752;2022-09-14T04:41:16;12.20;99.90
53711;DHT22;39605;52.704;6.752;2022-09-14T04:43:44;12.20;99.90
53711;DHT22;39605;52.704;6.752;2022-09-14T04:46:12;12.20;99.90
53711;DHT22;39605;52.704;6.752;2022-09-14T04:48:37;12.20;99.90
53711;DHT22;39605;52.704;6.752;2022-09-14T04:51:06;12.30;99.90
53711;DHT22;39605;52.704;6.752;2022-09-14T04:53:33;12.30;99.90
53711;DHT22;39605;52.704;6.752;2022-09-14T04:56:00;12.30;99.90
53711;DHT22;39605;52.704;6.752;2022-09-14T04:58:27;12.30;99.90
53711;DHT22;39605;52.704;6.752;2022-09-14T05:00:54;12.30;99.90
53711;DHT22;39605;52.704;6.752;2022-09-14T05:03:20;12.30;99.90
53711;DHT22;39605;52.704;6.752;2022-09-14T05:05:46;12.40;99.90
53711;DHT22;39605;52.704;6.752;2022-09-14T05:08:12;12.40;99.90
53711;DHT22;39605;52.704;6.752;2022-09-14T05:10:38;12.30;99.90
53711;DHT22;39605;52.704;6.752;2022-09-14T05:13:03;12.40;99.90
53711;DHT22;39605;52.704;6.752;2022-09-14T05:15:29;12.40;99.90
53711;DHT22;39605;52.704;6.752;2022-09-14T05:17:54;12.50;99.90
53711;DHT22;39605;52.704;6.752;2022-09-14T05:20:20;12.50;99.90
53711;DHT22;39605;52.704;6.752;2022-09-14T05:22:49;12.50;99.90
53711;DHT22;39605;52.704;6.752;2022-09-14T05:25:15;12.50;99.90
53711;DHT22;39605;52.704;6.752;2022-09-14T05:27:41;12.50;99.90
53711;DHT22;39605;52.704;6.752;2022-09-14T05:30:07;12.50;99.90
53711;DHT22;39605;52.704;6.752;2022-09-14T05:32:33;12.60;99.90
53711;DHT22;39605;52.704;6.752;2022-09-14T05:34:58;12.50;99.90
53711;DHT22;39605;52.704;6.752;2022-09-14T05:37:24;12.60;99.90
53711;DHT22;39605;52.704;6.752;2022-09-14T05:39:50;12.60;99.90
53711;DHT22;39605;52.704;6.752;2022-09-14T05:42:19;12.60;99.90
53711;DHT22;39605;52.704;6.752;2022-09-14T05:44:48;12.60;99.90
53711;DHT22;39605;52.704;6.752;2022-09-14T05:47:14;12.60;99.90
53711;DHT22;39605;52.704;6.752;2022-09-14T05:49:39;12.60;99.90
53711;DHT22;39605;52.704;6.752;2022-09-14T05:52:05;12.70;99.90
53711;DHT22;39605;52.704;6.752;2022-09-14T05:54:31;12.70;99.90
53711;DHT22;39605;52.704;6.752;2022-09-14T05:56:56;12.70;99.90
53711;DHT22;39605;52.704;6.752;2022-09-14T05:59:22;12.70;99.90
53711;DHT22;39605;52.704;6.752;2022-09-14T06:01:47;12.70;99.90
53711;DHT22;39605;52.704;6.752;2022-09-14T06:04:13;12.80;99.90
53711;DHT22;39605;52.704;6.752;2022-09-14T06:06:39;12.80;99.90
53711;DHT22;39605;52.704;6.752;2022-09-14T06:09:04;12.80;99.90
53711;DHT22;39605;52.704;6.752;2022-09-14T06:11:32;12.90;99.90
53711;DHT22;39605;52.704;6.752;2022-09-14T06:14:01;12.90;99.90
53711;DHT22;39605;52.704;6.752;2022-09-14T06:16:27;12.90;99.90
53711;DHT22;39605;52.704;6.752;2022-09-14T06:18:54;13.00;99.90
53711;DHT22;39605;52.704;6.752;2022-09-14T06:21:21;13.00;99.90
53711;DHT22;39605;52.704;6.752;2022-09-14T06:23:47;13.10;99.90
53711;DHT22;39605;52.704;6.752;2022-09-14T06:26:14;13.10;99.90
53711;DHT22;39605;52.704;6.752;2022-09-14T06:28:40;13.10;99.90
53711;DHT22;39605;52.704;6.752;2022-09-14T06:31:06;13.10;99.90
53711;DHT22;39605;52.704;6.752;2022-09-14T06:33:34;13.10;99.90
53711;DHT22;39605;52.704;6.752;2022-09-14T06:36:05;13.10;99.90
53711;DHT22;39605;52.704;6.752;2022-09-14T06:38:34;13.20;99.90
53711;DHT22;39605;52.704;6.752;2022-09-14T06:41:02;13.30;99.90
53711;DHT22;39605;52.704;6.752;2022-09-14T06:43:31;13.30;99.90
53711;DHT22;39605;52.704;6.752;2022-09-14T06:46:05;13.30;99.90
53711;DHT22;39605;52.704;6.752;2022-09-14T06:48:35;13.30;99.90
53711;DHT22;39605;52.704;6.752;2022-09-14T06:51:10;13.40;99.90
53711;DHT22;39605;52.704;6.752;2022-09-14T06:53:36;13.40;99.90
53711;DHT22;39605;52.704;6.752;2022-09-14T06:56:02;13.50;99.90
53711;DHT22;39605;52.704;6.752;2022-09-14T06:58:27;13.50;99.90
53711;DHT22;39605;52.704;6.752;2022-09-14T07:00:53;13.50;99.90
53711;DHT22;39605;52.704;6.752;2022-09-14T07:03:19;13.50;99.90
53711;DHT22;39605;52.704;6.752;2022-09-14T07:05:44;13.50;99.90
53711;DHT22;39605;52.704;6.752;2022-09-14T07:08:10;13.60;99.90
53711;DHT22;39605;52.704;6.752;2022-09-14T07:10:35;13.70;99.90
53711;DHT22;39605;52.704;6.752;2022-09-14T07:13:01;13.70;99.90
53711;DHT22;39605;52.704;6.752;2022-09-14T07:15:27;13.80;99.90
53711;DHT22;39605;52.704;6.752;2022-09-14T07:17:53;13.80;99.90
53711;DHT22;39605;52.704;6.752;2022-09-14T07:20:18;13.80;99.90
53711;DHT22;39605;52.704;6.752;2022-09-14T07:22:44;13.90;99.90
53711;DHT22;39605;52.704;6.752;2022-09-14T07:25:10;14.00;99.90
53711;DHT22;39605;52.704;6.752;2022-09-14T07:27:36;14.00;99.90
53711;DHT22;39605;52.704;6.752;2022-09-14T07:30:05;14.10;99.90
53711;DHT22;39605;52.704;6.752;2022-09-14T07:32:31;14.20;99.90
53711;DHT22;39605;52.704;6.752;2022-09-14T07:34:57;14.30;99.90
53711;DHT22;39605;52.704;6.752;2022-09-14T07:37:23;14.40;99.90
53711;DHT22;39605;52.704;6.752;2022-09-14T07:39:48;14.60;99.90
53711;DHT22;39605;52.704;6.752;2022-09-14T07:42:14;14.70;99.90
53711;DHT22;39605;52.704;6.752;2022-09-14T07:44:40;14.80;99.90
53711;DHT22;39605;52.704;6.752;2022-09-14T07:47:05;15.00;99.90
53711;DHT22;39605;52.704;6.752;2022-09-14T07:49:31;15.00;99.90
53711;DHT22;39605;52.704;6.752;2022-09-14T07:51:57;15.20;99.90
53711;DHT22;39605;52.704;6.752;2022-09-14T07:54:22;15.30;99.90
53711;DHT22;39605;52.704;6.752;2022-09-14T07:56:48;15.40;99.90
53711;DHT22;39605;52.704;6.752;2022-09-14T07:59:15;15.50;99.90
53711;DHT22;39605;52.704;6.752;2022-09-14T08:01:41;15.60;99.90
53711;DHT22;39605;52.704;6.752;2022-09-14T08:04:06;15.70;99.90
53711;DHT22;39605;52.704;6.752;2022-09-14T08:06:34;15.90;99.90
53711;DHT22;39605;52.704;6.752;2022-09-14T08:09:05;16.10;99.90
53711;DHT22;39605;52.704;6.752;2022-09-14T08:11:32;16.30;99.90
53711;DHT22;39605;52.704;6.752;2022-09-14T08:14:10;16.50;99.90
53711;DHT22;39605;52.704;6.752;2022-09-14T08:16:36;16.70;99.90
53711;DHT22;39605;52.704;6.752;2022-09-14T08:19:09;16.90;99.90
53711;DHT22;39605;52.704;6.752;2022-09-14T08:21:36;17.00;99.90
53711;DHT22;39605;52.704;6.752;2022-09-14T08:24:02;17.10;99.90
53711;DHT22;39605;52.704;6.752;2022-09-14T08:26:28;17.10;99.90
53711;DHT22;39605;52.704;6.752;2022-09-14T08:28:55;17.20;99.90
53711;DHT22;39605;52.704;6.752;2022-09-14T08:31:23;17.20;99.90
53711;DHT22;39605;52.704;6.752;2022-09-14T08:33:52;17.20;99.90
53711;DHT22;39605;52.704;6.752;2022-09-14T08:36:20;17.30;99.90
53711;DHT22;39605;52.704;6.752;2022-09-14T08:38:47;17.30;99.90
53711;DHT22;39605;52.704;6.752;2022-09-14T08:41:26;17.20;99.90
53711;DHT22;39605;52.704;6.752;2022-09-14T08:43:53;17.20;99.90
53711;DHT22;39605;52.704;6.752;2022-09-14T08:46:29;17.20;99.90
53711;DHT22;39605;52.704;6.752;2022-09-14T08:48:55;17.20;99.90
53711;DHT22;39605;52.704;6.752;2022-09-14T08:51:21;17.20;99.90
53711;DHT22;39605;52.704;6.752;2022-09-14T08:53:49;17.10;99.90
53711;DHT22;39605;52.704;6.752;2022-09-14T08:56:20;17.10;99.90
53711;DHT22;39605;52.704;6.752;2022-09-14T08:58:53;17.10;99.90
53711;DHT22;39605;52.704;6.752;2022-09-14T09:06:57;17.30;99.90
53711;DHT22;39605;52.704;6.752;2022-09-14T09:09:49;17.40;99.90
53711;DHT22;39605;52.704;6.752;2022-09-14T09:12:39;17.50;99.90
53711;DHT22;39605;52.704;6.752;2022-09-14T09:18:05;17.70;99.90
53711;DHT22;39605;52.704;6.752;2022-09-14T09:20:35;17.80;99.90
53711;DHT22;39605;52.704;6.752;2022-09-14T09:23:15;17.80;99.90
53711;DHT22;39605;52.704;6.752;2022-09-14T09:26:02;17.90;99.90
53711;DHT22;39605;52.704;6.752;2022-09-14T09:28:29;17.90;99.90
53711;DHT22;39605;52.704;6.752;2022-09-14T09:31:04;17.90;99.90
53711;DHT22;39605;52.704;6.752;2022-09-14T09:33:31;17.90;99.90
53711;DHT22;39605;52.704;6.752;2022-09-14T09:35:58;18.00;99.90
53711;DHT22;39605;52.704;6.752;2022-09-14T09:38:26;18.00;99.90
53711;DHT22;39605;52.704;6.752;2022-09-14T09:43:58;18.00;99.90
53711;DHT22;39605;52.704;6.752;2022-09-14T09:46:30;18.00;99.90
53711;DHT22;39605;52.704;6.752;2022-09-14T09:48:58;18.00;99.90
53711;DHT22;39605;52.704;6.752;2022-09-14T09:54:20;18.00;99.90
53711;DHT22;39605;52.704;6.752;2022-09-14T09:56:56;18.00;99.90
53711;DHT22;39605;52.704;6.752;2022-09-14T09:59:26;18.00;99.90
53711;DHT22;39605;52.704;6.752;2022-09-14T10:01:54;18.00;99.90
53711;DHT22;39605;52.704;6.752;2022-09-14T10:04:24;18.10;99.90
53711;DHT22;39605;52.704;6.752;2022-09-14T10:06:52;18.20;99.90
53711;DHT22;39605;52.704;6.752;2022-09-14T10:09:23;18.20;99.90
53711;DHT22;39605;52.704;6.752;2022-09-14T10:12:04;18.20;99.90
53711;DHT22;39605;52.704;6.752;2022-09-14T10:14:34;18.20;99.90
53711;DHT22;39605;52.704;6.752;2022-09-14T10:19:39;18.20;99.90
53711;DHT22;39605;52.704;6.752;2022-09-14T10:24:59;18.30;99.90
53711;DHT22;39605;52.704;6.752;2022-09-14T10:28:01;18.40;99.90
53711;DHT22;39605;52.704;6.752;2022-09-14T10:30:31;18.60;99.90
53711;DHT22;39605;52.704;6.752;2022-09-14T10:33:04;18.80;99.90
53711;DHT22;39605;52.704;6.752;2022-09-14T10:46:19;19.10;99.90
53711;DHT22;39605;52.704;6.752;2022-09-14T10:48:54;19.20;99.90
53711;DHT22;39605;52.704;6.752;2022-09-14T10:51:42;19.40;99.90
53711;DHT22;39605;52.704;6.752;2022-09-14T11:02:37;19.50;99.90
53711;DHT22;39605;52.704;6.752;2022-09-14T11:05:11;19.50;99.90
53711;DHT22;39605;52.704;6.752;2022-09-14T11:16:49;19.70;99.90
53711;DHT22;39605;52.704;6.752;2022-09-14T11:24:40;20.60;99.90
53711;DHT22;39605;52.704;6.752;2022-09-14T11:27:33;20.70;99.90
53711;DHT22;39605;52.704;6.752;2022-09-14T11:30:10;20.60;99.90
53711;DHT22;39605;52.704;6.752;2022-09-14T11:32:58;20.60;99.70
53711;DHT22;39605;52.704;6.752;2022-09-14T11:35:35;20.60;99.90
53711;DHT22;39605;52.704;6.752;2022-09-14T11:38:19;20.70;99.90
53711;DHT22;39605;52.704;6.752;2022-09-14T11:41:00;20.70;99.00
53711;DHT22;39605;52.704;6.752;2022-09-14T11:43:39;20.70;99.50
53711;DHT22;39605;52.704;6.752;2022-09-14T11:46:15;20.70;97.20
53711;DHT22;39605;52.704;6.752;2022-09-14T11:51:32;20.50;99.90
53711;DHT22;39605;52.704;6.752;2022-09-14T11:54:00;20.50;99.20
53711;DHT22;39605;52.704;6.752;2022-09-14T11:56:31;20.30;99.90
53711;DHT22;39605;52.704;6.752;2022-09-14T11:59:03;20.20;99.90
53711;DHT22;39605;52.704;6.752;2022-09-14T12:01:36;20.10;99.90
53711;DHT22;39605;52.704;6.752;2022-09-14T12:04:08;19.80;99.20
53711;DHT22;39605;52.704;6.752;2022-09-14T12:11:58;19.50;99.90
53711;DHT22;39605;52.704;6.752;2022-09-14T12:17:21;19.60;99.90
53711;DHT22;39605;52.704;6.752;2022-09-14T12:19:54;19.90;99.90
53711;DHT22;39605;52.704;6.752;2022-09-14T12:22:35;20.10;99.90
53711;DHT22;39605;52.704;6.752;2022-09-14T12:27:30;20.70;99.10
53711;DHT22;39605;52.704;6.752;2022-09-14T12:29:57;21.00;99.50
53711;DHT22;39605;52.704;6.752;2022-09-14T12:32:38;21.20;99.00
53711;DHT22;39605;52.704;6.752;2022-09-14T12:40:55;22.10;99.00
53711;DHT22;39605;52.704;6.752;2022-09-14T12:46:10;22.50;96.50
53711;DHT22;39605;52.704;6.752;2022-09-14T12:49:03;22.70;95.90
53711;DHT22;39605;52.704;6.752;2022-09-14T12:51:46;22.80;96.80
53711;DHT22;39605;52.704;6.752;2022-09-14T13:00:16;22.20;95.30
53711;DHT22;39605;52.704;6.752;2022-09-14T13:02:56;21.90;96.30
53711;DHT22;39605;52.704;6.752;2022-09-14T13:05:27;21.60;96.40
53711;DHT22;39605;52.704;6.752;2022-09-14T13:07:55;21.50;96.70
53711;DHT22;39605;52.704;6.752;2022-09-14T13:10:34;21.20;97.00
53711;DHT22;39605;52.704;6.752;2022-09-14T13:13:04;21.10;97.50
53711;DHT22;39605;52.704;6.752;2022-09-14T13:15:34;21.00;98.80
53711;DHT22;39605;52.704;6.752;2022-09-14T13:18:27;20.90;98.10
53711;DHT22;39605;52.704;6.752;2022-09-14T13:21:01;20.80;98.00
53711;DHT22;39605;52.704;6.752;2022-09-14T13:25:53;20.60;98.50
53711;DHT22;39605;52.704;6.752;2022-09-14T13:28:20;20.50;98.60
53711;DHT22;39605;52.704;6.752;2022-09-14T13:30:54;20.40;98.90
53711;DHT22;39605;52.704;6.752;2022-09-14T13:33:20;20.30;98.40
53711;DHT22;39605;52.704;6.752;2022-09-14T13:35:59;20.40;98.90
53711;DHT22;39605;52.704;6.752;2022-09-14T13:38:33;20.40;98.60
53711;DHT22;39605;52.704;6.752;2022-09-14T13:41:07;20.60;99.90
53711;DHT22;39605;52.704;6.752;2022-09-14T13:43:33;20.60;99.80
53711;DHT22;39605;52.704;6.752;2022-09-14T13:45:59;20.80;99.90
53711;DHT22;39605;52.704;6.752;2022-09-14T13:48:26;20.90;98.80
53711;DHT22;39605;52.704;6.752;2022-09-14T13:50:52;21.10;99.90
53711;DHT22;39605;52.704;6.752;2022-09-14T13:53:49;21.10;98.10
53711;DHT22;39605;52.704;6.752;2022-09-14T13:56:27;21.20;97.80
53711;DHT22;39605;52.704;6.752;2022-09-14T14:01:39;21.40;97.90
53711;DHT22;39605;52.704;6.752;2022-09-14T14:04:05;21.50;96.70
53711;DHT22;39605;52.704;6.752;2022-09-14T14:06:33;21.70;96.30
53711;DHT22;39605;52.704;6.752;2022-09-14T14:09:05;21.80;97.40
53711;DHT22;39605;52.704;6.752;2022-09-14T14:11:37;21.80;95.50
53711;DHT22;39605;52.704;6.752;2022-09-14T14:14:24;21.80;95.50
53711;DHT22;39605;52.704;6.752;2022-09-14T14:17:20;21.70;95.60
53711;DHT22;39605;52.704;6.752;2022-09-14T14:19:47;21.60;96.70
53711;DHT22;39605;52.704;6.752;2022-09-14T14:24:40;21.60;96.00
53711;DHT22;39605;52.704;6.752;2022-09-14T14:27:34;21.60;95.60
53711;DHT22;39605;52.704;6.752;2022-09-14T14:30:03;21.60;94.40
53711;DHT22;39605;52.704;6.752;2022-09-14T14:32:29;21.40;94.20
53711;DHT22;39605;52.704;6.752;2022-09-14T14:34:56;21.30;94.70
53711;DHT22;39605;52.704;6.752;2022-09-14T14:37:21;21.20;96.30
53711;DHT22;39605;52.704;6.752;2022-09-14T14:39:47;21.10;95.90
53711;DHT22;39605;52.704;6.752;2022-09-14T14:42:14;21.00;96.20
53711;DHT22;39605;52.704;6.752;2022-09-14T14:44:41;21.00;97.10
53711;DHT22;39605;52.704;6.752;2022-09-14T14:47:11;20.90;96.30
53711;DHT22;39605;52.704;6.752;2022-09-14T14:49:37;20.90;97.30
53711;DHT22;39605;52.704;6.752;2022-09-14T14:52:02;20.80;97.40
53711;DHT22;39605;52.704;6.752;2022-09-14T14:54:28;20.90;97.30
53711;DHT22;39605;52.704;6.752;2022-09-14T14:56:54;20.90;97.30
53711;DHT22;39605;52.704;6.752;2022-09-14T15:01:51;20.70;97.30
53711;DHT22;39605;52.704;6.752;2022-09-14T15:04:17;20.60;97.00
53711;DHT22;39605;52.704;6.752;2022-09-14T15:06:44;20.60;97.60
53711;DHT22;39605;52.704;6.752;2022-09-14T15:09:28;20.60;97.70
53711;DHT22;39605;52.704;6.752;2022-09-14T15:11:55;20.60;98.20
53711;DHT22;39605;52.704;6.752;2022-09-14T15:14:23;20.60;97.90
53711;DHT22;39605;52.704;6.752;2022-09-14T15:16:50;20.60;97.90
53711;DHT22;39605;52.704;6.752;2022-09-14T15:19:16;20.60;97.20
53711;DHT22;39605;52.704;6.752;2022-09-14T15:21:42;20.70;96.40
53711;DHT22;39605;52.704;6.752;2022-09-14T15:24:09;20.60;97.20
53711;DHT22;39605;52.704;6.752;2022-09-14T15:26:35;20.60;96.80
53711;DHT22;39605;52.704;6.752;2022-09-14T15:29:02;20.50;97.30
53711;DHT22;39605;52.704;6.752;2022-09-14T15:31:28;20.40;97.00
53711;DHT22;39605;52.704;6.752;2022-09-14T15:33:54;20.30;97.10
53711;DHT22;39605;52.704;6.752;2022-09-14T15:36:44;20.20;97.30
53711;DHT22;39605;52.704;6.752;2022-09-14T15:39:21;20.20;97.80
53711;DHT22;39605;52.704;6.752;2022-09-14T15:41:47;20.10;98.10
53711;DHT22;39605;52.704;6.752;2022-09-14T15:44:13;20.00;97.70
53711;DHT22;39605;52.704;6.752;2022-09-14T15:46:40;20.00;98.40
53711;DHT22;39605;52.704;6.752;2022-09-14T15:49:11;20.10;98.50
53711;DHT22;39605;52.704;6.752;2022-09-14T15:51:39;20.00;98.80
53711;DHT22;39605;52.704;6.752;2022-09-14T15:54:06;20.00;98.10
53711;DHT22;39605;52.704;6.752;2022-09-14T15:56:31;20.00;98.10
53711;DHT22;39605;52.704;6.752;2022-09-14T15:58:59;20.00;98.30
53711;DHT22;39605;52.704;6.752;2022-09-14T16:01:26;20.00;98.30
53711;DHT22;39605;52.704;6.752;2022-09-14T16:04:00;20.00;98.40
53711;DHT22;39605;52.704;6.752;2022-09-14T16:06:27;20.00;98.20
53711;DHT22;39605;52.704;6.752;2022-09-14T16:08:54;19.90;99.30
53711;DHT22;39605;52.704;6.752;2022-09-14T16:11:20;19.90;98.90
53711;DHT22;39605;52.704;6.752;2022-09-14T16:13:48;19.80;98.90
53711;DHT22;39605;52.704;6.752;2022-09-14T16:16:14;19.80;98.70
53711;DHT22;39605;52.704;6.752;2022-09-14T16:18:41;19.70;98.60
53711;DHT22;39605;52.704;6.752;2022-09-14T16:21:10;19.70;99.60
53711;DHT22;39605;52.704;6.752;2022-09-14T16:23:40;19.60;99.90
53711;DHT22;39605;52.704;6.752;2022-09-14T16:26:07;19.60;99.60
53711;DHT22;39605;52.704;6.752;2022-09-14T16:28:35;19.50;99.90
53711;DHT22;39605;52.704;6.752;2022-09-14T16:31:10;19.40;99.90
53711;DHT22;39605;52.704;6.752;2022-09-14T16:33:41;19.40;99.90
53711;DHT22;39605;52.704;6.752;2022-09-14T16:36:19;19.30;99.90
53711;DHT22;39605;52.704;6.752;2022-09-14T16:38:45;19.30;99.90
53711;DHT22;39605;52.704;6.752;2022-09-14T16:41:12;19.30;99.90
53711;DHT22;39605;52.704;6.752;2022-09-14T16:43:38;19.20;99.90
53711;DHT22;39605;52.704;6.752;2022-09-14T16:46:12;19.20;99.90
53711;DHT22;39605;52.704;6.752;2022-09-14T16:48:43;19.10;99.90
53711;DHT22;39605;52.704;6.752;2022-09-14T16:51:10;19.10;99.90
53711;DHT22;39605;52.704;6.752;2022-09-14T16:53:39;19.10;99.90
53711;DHT22;39605;52.704;6.752;2022-09-14T16:56:07;19.00;99.90
53711;DHT22;39605;52.704;6.752;2022-09-14T16:58:34;19.00;99.90
53711;DHT22;39605;52.704;6.752;2022-09-14T17:01:14;19.00;99.90
53711;DHT22;39605;52.704;6.752;2022-09-14T17:03:41;18.90;99.90
53711;DHT22;39605;52.704;6.752;2022-09-14T17:06:10;18.90;99.90
53711;DHT22;39605;52.704;6.752;2022-09-14T17:08:37;18.80;99.90
53711;DHT22;39605;52.704;6.752;2022-09-14T17:11:03;18.80;99.90
53711;DHT22;39605;52.704;6.752;2022-09-14T17:13:29;18.70;99.90
53711;DHT22;39605;52.704;6.752;2022-09-14T17:16:04;18.70;99.90
53711;DHT22;39605;52.704;6.752;2022-09-14T17:18:30;18.60;99.90
53711;DHT22;39605;52.704;6.752;2022-09-14T17:20:59;18.50;99.90
53711;DHT22;39605;52.704;6.752;2022-09-14T17:23:25;18.50;99.90
53711;DHT22;39605;52.704;6.752;2022-09-14T17:25:51;18.40;99.90
53711;DHT22;39605;52.704;6.752;2022-09-14T17:28:20;18.50;99.90
53711;DHT22;39605;52.704;6.752;2022-09-14T17:30:48;18.40;99.90
53711;DHT22;39605;52.704;6.752;2022-09-14T17:33:14;18.30;99.90
53711;DHT22;39605;52.704;6.752;2022-09-14T17:35:52;18.30;99.90
53711;DHT22;39605;52.704;6.752;2022-09-14T17:38:18;18.20;99.90
53711;DHT22;39605;52.704;6.752;2022-09-14T17:40:49;18.10;99.90
53711;DHT22;39605;52.704;6.752;2022-09-14T17:43:15;18.00;99.90
53711;DHT22;39605;52.704;6.752;2022-09-14T17:45:51;17.90;99.90
53711;DHT22;39605;52.704;6.752;2022-09-14T17:48:17;17.80;99.90
53711;DHT22;39605;52.704;6.752;2022-09-14T17:50:43;17.70;99.90